sensor_id;sensor_type;location;lat;lon;timestamp;temperature;humidity
68922;DHT22;55959;51.244;5.724;2022-11-30T00:01:13;10.90;79.20
68922;DHT22;55959;51.244;5.724;2022-11-30T00:03:42;10.90;79.10
68922;DHT22;55959;51.244;5.724;2022-11-30T00:06:11;10.90;79.10
68922;DHT22;55959;51.244;5.724;2022-11-30T00:08:38;10.90;79.20
68922;DHT22;55959;51.244;5.724;2022-11-30T00:11:24;10.90;79.30
68922;DHT22;55959;51.244;5.724;2022-11-30T00:13:52;10.90;79.30
68922;DHT22;55959;51.244;5.724;2022-11-30T00:16:17;10.90;79.30
68922;DHT22;55959;51.244;5.724;2022-11-30T00:18:43;10.90;79.30
68922;DHT22;55959;51.244;5.724;2022-11-30T00:21:11;10.90;79.30
68922;DHT22;55959;51.244;5.724;2022-11-30T00:23:40;10.90;79.30
68922;DHT22;55959;51.244;5.724;2022-11-30T00:26:09;10.90;79.30
68922;DHT22;55959;51.244;5.724;2022-11-30T00:28:36;10.90;79.30
68922;DHT22;55959;51.244;5.724;2022-11-30T00:31:05;10.90;79.40
68922;DHT22;55959;51.244;5.724;2022-11-30T00:33:33;10.90;79.70
68922;DHT22;55959;51.244;5.724;2022-11-30T00:36:02;10.90;79.50
68922;DHT22;55959;51.244;5.724;2022-11-30T00:38:31;10.80;79.50
68922;DHT22;55959;51.244;5.724;2022-11-30T00:40:57;10.90;79.60
68922;DHT22;55959;51.244;5.724;2022-11-30T00:43:23;10.90;79.60
68922;DHT22;55959;51.244;5.724;2022-11-30T00:45:49;10.90;80.60
68922;DHT22;55959;51.244;5.724;2022-11-30T00:48:15;10.90;79.60
68922;DHT22;55959;51.244;5.724;2022-11-30T00:50:40;10.90;79.50
68922;DHT22;55959;51.244;5.724;2022-11-30T00:53:06;10.90;79.50
68922;DHT22;55959;51.244;5.724;2022-11-30T00:55:32;10.90;79.50
68922;DHT22;55959;51.244;5.724;2022-11-30T00:57:59;10.90;79.50
68922;DHT22;55959;51.244;5.724;2022-11-30T01:00:25;10.90;79.50
68922;DHT22;55959;51.244;5.724;2022-11-30T01:02:55;10.90;79.70
68922;DHT22;55959;51.244;5.724;2022-11-30T01:05:21;10.90;79.70
68922;DHT22;55959;51.244;5.724;2022-11-30T01:07:47;10.90;79.70
68922;DHT22;55959;51.244;5.724;2022-11-30T01:10:13;10.90;79.80
68922;DHT22;55959;51.244;5.724;2022-11-30T01:12:39;10.90;79.70
68922;DHT22;55959;51.244;5.724;2022-11-30T01:15:04;10.90;79.80
68922;DHT22;55959;51.244;5.724;2022-11-30T01:17:30;10.90;79.90
68922;DHT22;55959;51.244;5.724;2022-11-30T01:19:56;11.00;79.90
68922;DHT22;55959;51.244;5.724;2022-11-30T01:22:22;11.00;79.80
68922;DHT22;55959;51.244;5.724;2022-11-30T01:24:47;11.00;79.80
68922;DHT22;55959;51.244;5.724;2022-11-30T01:27:13;11.00;79.70
68922;DHT22;55959;51.244;5.724;2022-11-30T01:29:39;11.00;79.70
68922;DHT22;55959;51.244;5.724;2022-11-30T01:32:05;11.00;79.70
68922;DHT22;55959;51.244;5.724;2022-11-30T01:34:31;11.00;79.80
68922;DHT22;55959;51.244;5.724;2022-11-30T01:36:56;11.00;79.80
68922;DHT22;55959;51.244;5.724;2022-11-30T01:39:22;11.00;79.90
68922;DHT22;55959;51.244;5.724;2022-11-30T01:41:48;11.00;79.90
68922;DHT22;55959;51.244;5.724;2022-11-30T01:47:00;11.00;79.90
68922;DHT22;55959;51.244;5.724;2022-11-30T01:49:38;11.10;80.00
68922;DHT22;55959;51.244;5.724;2022-11-30T01:52:22;11.10;79.90
68922;DHT22;55959;51.244;5.724;2022-11-30T01:54:55;11.10;79.90
68922;DHT22;55959;51.244;5.724;2022-11-30T01:57:36;11.10;79.90
68922;DHT22;55959;51.244;5.724;2022-11-30T02:00:07;11.10;79.90
68922;DHT22;55959;51.244;5.724;2022-11-30T02:05:42;11.10;79.80
68922;DHT22;55959;51.244;5.724;2022-11-30T02:08:09;11.10;79.80
68922;DHT22;55959;51.244;5.724;2022-11-30T02:10:37;11.10;79.80
68922;DHT22;55959;51.244;5.724;2022-11-30T02:25:44;11.10;79.90
68922;DHT22;55959;51.244;5.724;2022-11-30T02:34:29;11.20;79.90
68922;DHT22;55959;51.244;5.724;2022-11-30T02:36:57;11.20;79.90
68922;DHT22;55959;51.244;5.724;2022-11-30T02:39:24;11.20;79.90
68922;DHT22;55959;51.244;5.724;2022-11-30T02:41:50;11.20;79.80
68922;DHT22;55959;51.244;5.724;2022-11-30T02:44:16;11.20;79.90
68922;DHT22;55959;51.244;5.724;2022-11-30T02:47:01;11.20;79.90
68922;DHT22;55959;51.244;5.724;2022-11-30T02:49:55;11.20;79.90
68922;DHT22;55959;51.244;5.724;2022-11-30T02:52:25;11.30;80.00
68922;DHT22;55959;51.244;5.724;2022-11-30T02:54:56;11.30;80.00
68922;DHT22;55959;51.244;5.724;2022-11-30T02:57:23;11.30;80.00
68922;DHT22;55959;51.244;5.724;2022-11-30T02:59:49;11.30;79.90
68922;DHT22;55959;51.244;5.724;2022-11-30T03:02:15;11.30;79.80
68922;DHT22;55959;51.244;5.724;2022-11-30T03:04:41;11.30;79.70
68922;DHT22;55959;51.244;5.724;2022-11-30T03:07:06;11.30;79.70
68922;DHT22;55959;51.244;5.724;2022-11-30T03:09:32;11.30;79.70
68922;DHT22;55959;51.244;5.724;2022-11-30T03:11:58;11.40;79.70
68922;DHT22;55959;51.244;5.724;2022-11-30T03:14:23;11.30;79.70
68922;DHT22;55959;51.244;5.724;2022-11-30T03:16:49;11.40;79.70
68922;DHT22;55959;51.244;5.724;2022-11-30T03:19:15;11.40;79.70
68922;DHT22;55959;51.244;5.724;2022-11-30T03:21:40;11.40;79.60
68922;DHT22;55959;51.244;5.724;2022-11-30T03:24:06;11.40;79.50
68922;DHT22;55959;51.244;5.724;2022-11-30T03:26:32;11.40;79.50
68922;DHT22;55959;51.244;5.724;2022-11-30T03:28:58;11.40;79.50
68922;DHT22;55959;51.244;5.724;2022-11-30T03:31:24;11.40;79.50
68922;DHT22;55959;51.244;5.724;2022-11-30T03:33:49;11.50;79.50
68922;DHT22;55959;51.244;5.724;2022-11-30T03:36:15;11.40;79.30
68922;DHT22;55959;51.244;5.724;2022-11-30T03:38:41;11.40;79.40
68922;DHT22;55959;51.244;5.724;2022-11-30T03:41:12;11.50;79.50
68922;DHT22;55959;51.244;5.724;2022-11-30T03:43:39;11.40;79.30
68922;DHT22;55959;51.244;5.724;2022-11-30T03:46:05;11.50;79.40
68922;DHT22;55959;51.244;5.724;2022-11-30T03:48:31;11.40;79.30
68922;DHT22;55959;51.244;5.724;2022-11-30T03:50:57;11.50;79.30
68922;DHT22;55959;51.244;5.724;2022-11-30T03:53:24;11.50;79.30
68922;DHT22;55959;51.244;5.724;2022-11-30T03:55:54;11.50;79.30
68922;DHT22;55959;51.244;5.724;2022-11-30T03:58:23;11.40;79.30
68922;DHT22;55959;51.244;5.724;2022-11-30T04:00:49;11.50;79.30
68922;DHT22;55959;51.244;5.724;2022-11-30T04:03:17;11.40;79.20
68922;DHT22;55959;51.244;5.724;2022-11-30T04:05:43;11.50;79.20
68922;DHT22;55959;51.244;5.724;2022-11-30T04:08:11;11.50;79.20
68922;DHT22;55959;51.244;5.724;2022-11-30T04:10:37;11.50;79.10
68922;DHT22;55959;51.244;5.724;2022-11-30T04:13:02;11.40;79.00
68922;DHT22;55959;51.244;5.724;2022-11-30T04:15:28;11.50;79.00
68922;DHT22;55959;51.244;5.724;2022-11-30T04:17:54;11.40;78.80
68922;DHT22;55959;51.244;5.724;2022-11-30T04:20:19;11.50;78.80
68922;DHT22;55959;51.244;5.724;2022-11-30T04:22:45;11.40;78.60
68922;DHT22;55959;51.244;5.724;2022-11-30T04:25:11;11.50;78.60
68922;DHT22;55959;51.244;5.724;2022-11-30T04:27:37;11.40;78.50
68922;DHT22;55959;51.244;5.724;2022-11-30T04:30:03;11.40;78.30
68922;DHT22;55959;51.244;5.724;2022-11-30T04:32:29;11.40;78.20
68922;DHT22;55959;51.244;5.724;2022-11-30T04:34:54;11.40;78.10
68922;DHT22;55959;51.244;5.724;2022-11-30T04:37:20;11.40;78.90
68922;DHT22;55959;51.244;5.724;2022-11-30T04:39:46;11.30;77.80
68922;DHT22;55959;51.244;5.724;2022-11-30T04:42:11;11.30;77.80
68922;DHT22;55959;51.244;5.724;2022-11-30T04:44:37;11.30;77.70
68922;DHT22;55959;51.244;5.724;2022-11-30T04:47:03;11.30;77.50
68922;DHT22;55959;51.244;5.724;2022-11-30T04:49:28;11.20;77.30
68922;DHT22;55959;51.244;5.724;2022-11-30T04:51:54;11.20;77.30
68922;DHT22;55959;51.244;5.724;2022-11-30T04:54:20;11.20;77.30
68922;DHT22;55959;51.244;5.724;2022-11-30T04:56:46;11.10;77.10
68922;DHT22;55959;51.244;5.724;2022-11-30T04:59:11;11.10;77.00
68922;DHT22;55959;51.244;5.724;2022-11-30T05:01:37;11.10;76.90
68922;DHT22;55959;51.244;5.724;2022-11-30T05:04:04;11.00;76.70
68922;DHT22;55959;51.244;5.724;2022-11-30T05:06:29;11.00;76.70
68922;DHT22;55959;51.244;5.724;2022-11-30T05:08:55;10.90;76.70
68922;DHT22;55959;51.244;5.724;2022-11-30T05:11:21;10.90;76.60
68922;DHT22;55959;51.244;5.724;2022-11-30T05:13:46;10.90;76.50
68922;DHT22;55959;51.244;5.724;2022-11-30T05:16:12;10.90;76.50
68922;DHT22;55959;51.244;5.724;2022-11-30T05:18:38;10.80;76.40
68922;DHT22;55959;51.244;5.724;2022-11-30T05:21:04;10.80;76.40
68922;DHT22;55959;51.244;5.724;2022-11-30T05:23:30;10.80;76.40
68922;DHT22;55959;51.244;5.724;2022-11-30T05:25:56;10.70;76.30
68922;DHT22;55959;51.244;5.724;2022-11-30T05:28:22;10.70;76.30
68922;DHT22;55959;51.244;5.724;2022-11-30T05:30:47;10.60;76.30
68922;DHT22;55959;51.244;5.724;2022-11-30T05:33:13;10.60;76.50
68922;DHT22;55959;51.244;5.724;2022-11-30T05:35:39;10.60;76.50
68922;DHT22;55959;51.244;5.724;2022-11-30T05:38:05;10.60;76.70
68922;DHT22;55959;51.244;5.724;2022-11-30T05:40:31;10.50;76.70
68922;DHT22;55959;51.244;5.724;2022-11-30T05:42:59;10.50;76.80
68922;DHT22;55959;51.244;5.724;2022-11-30T05:45:25;10.50;76.80
68922;DHT22;55959;51.244;5.724;2022-11-30T05:47:51;10.50;76.90
68922;DHT22;55959;51.244;5.724;2022-11-30T05:50:17;10.50;77.00
68922;DHT22;55959;51.244;5.724;2022-11-30T05:52:43;10.50;77.00
68922;DHT22;55959;51.244;5.724;2022-11-30T05:55:09;10.50;77.90
68922;DHT22;55959;51.244;5.724;2022-11-30T05:57:39;10.40;77.10
68922;DHT22;55959;51.244;5.724;2022-11-30T06:00:06;10.40;77.20
68922;DHT22;55959;51.244;5.724;2022-11-30T06:02:33;10.40;77.20
68922;DHT22;55959;51.244;5.724;2022-11-30T06:04:59;10.40;77.30
68922;DHT22;55959;51.244;5.724;2022-11-30T06:07:25;10.40;77.40
68922;DHT22;55959;51.244;5.724;2022-11-30T06:09:54;10.40;77.40
68922;DHT22;55959;51.244;5.724;2022-11-30T06:12:20;10.40;77.50
68922;DHT22;55959;51.244;5.724;2022-11-30T06:14:45;10.40;77.60
68922;DHT22;55959;51.244;5.724;2022-11-30T06:17:11;10.40;77.70
68922;DHT22;55959;51.244;5.724;2022-11-30T06:19:37;10.50;77.70
68922;DHT22;55959;51.244;5.724;2022-11-30T06:22:02;10.40;77.70
68922;DHT22;55959;51.244;5.724;2022-11-30T06:24:28;10.40;77.70
68922;DHT22;55959;51.244;5.724;2022-11-30T06:26:54;10.40;77.70
68922;DHT22;55959;51.244;5.724;2022-11-30T06:29:19;10.40;77.70
68922;DHT22;55959;51.244;5.724;2022-11-30T06:31:46;10.40;77.70
68922;DHT22;55959;51.244;5.724;2022-11-30T06:34:11;10.40;77.80
68922;DHT22;55959;51.244;5.724;2022-11-30T06:36:37;10.40;77.80
68922;DHT22;55959;51.244;5.724;2022-11-30T06:39:03;10.40;78.70
68922;DHT22;55959;51.244;5.724;2022-11-30T06:41:29;10.40;77.90
68922;DHT22;55959;51.244;5.724;2022-11-30T06:43:55;10.40;77.90
68922;DHT22;55959;51.244;5.724;2022-11-30T06:46:20;10.40;78.00
68922;DHT22;55959;51.244;5.724;2022-11-30T06:48:49;10.40;77.90
68922;DHT22;55959;51.244;5.724;2022-11-30T06:51:15;10.40;78.00
68922;DHT22;55959;51.244;5.724;2022-11-30T06:53:42;10.40;78.00
68922;DHT22;55959;51.244;5.724;2022-11-30T06:56:09;10.50;78.90
68922;DHT22;55959;51.244;5.724;2022-11-30T06:58:36;10.40;78.10
68922;DHT22;55959;51.244;5.724;2022-11-30T07:01:07;10.40;78.10
68922;DHT22;55959;51.244;5.724;2022-11-30T07:03:35;10.40;78.00
68922;DHT22;55959;51.244;5.724;2022-11-30T07:06:05;10.50;78.10
68922;DHT22;55959;51.244;5.724;2022-11-30T07:08:38;10.50;79.00
68922;DHT22;55959;51.244;5.724;2022-11-30T07:11:06;10.50;78.10
68922;DHT22;55959;51.244;5.724;2022-11-30T07:13:33;10.40;78.10
68922;DHT22;55959;51.244;5.724;2022-11-30T07:16:01;10.40;78.20
68922;DHT22;55959;51.244;5.724;2022-11-30T07:18:28;10.40;78.20
68922;DHT22;55959;51.244;5.724;2022-11-30T07:21:01;10.40;78.30
68922;DHT22;55959;51.244;5.724;2022-11-30T07:23:28;10.40;78.30
68922;DHT22;55959;51.244;5.724;2022-11-30T07:26:13;10.40;78.40
68922;DHT22;55959;51.244;5.724;2022-11-30T07:28:40;10.40;78.40
68922;DHT22;55959;51.244;5.724;2022-11-30T07:31:22;10.40;78.40
68922;DHT22;55959;51.244;5.724;2022-11-30T07:33:49;10.40;78.50
68922;DHT22;55959;51.244;5.724;2022-11-30T07:36:17;10.40;78.50
68922;DHT22;55959;51.244;5.724;2022-11-30T07:38:44;10.40;78.50
68922;DHT22;55959;51.244;5.724;2022-11-30T07:41:10;10.40;78.50
68922;DHT22;55959;51.244;5.724;2022-11-30T07:43:36;10.40;78.50
68922;DHT22;55959;51.244;5.724;2022-11-30T07:46:03;10.40;78.50
68922;DHT22;55959;51.244;5.724;2022-11-30T07:48:29;10.40;78.40
68922;DHT22;55959;51.244;5.724;2022-11-30T07:51:01;10.40;78.40
68922;DHT22;55959;51.244;5.724;2022-11-30T07:53:30;10.40;78.40
68922;DHT22;55959;51.244;5.724;2022-11-30T07:56:04;10.40;78.40
68922;DHT22;55959;51.244;5.724;2022-11-30T07:58:35;10.40;78.50
68922;DHT22;55959;51.244;5.724;2022-11-30T08:01:06;10.40;78.50
68922;DHT22;55959;51.244;5.724;2022-11-30T08:03:34;10.50;78.60
68922;DHT22;55959;51.244;5.724;2022-11-30T08:06:09;10.50;78.60
68922;DHT22;55959;51.244;5.724;2022-11-30T08:08:38;10.50;78.60
68922;DHT22;55959;51.244;5.724;2022-11-30T08:11:07;10.40;78.50
68922;DHT22;55959;51.244;5.724;2022-11-30T08:13:34;10.40;78.50
68922;DHT22;55959;51.244;5.724;2022-11-30T08:16:14;10.50;78.50
68922;DHT22;55959;51.244;5.724;2022-11-30T08:18:42;10.50;78.60
68922;DHT22;55959;51.244;5.724;2022-11-30T08:21:10;10.40;78.50
68922;DHT22;55959;51.244;5.724;2022-11-30T08:23:40;10.40;78.50
68922;DHT22;55959;51.244;5.724;2022-11-30T08:26:11;10.40;78.50
68922;DHT22;55959;51.244;5.724;2022-11-30T08:28:40;10.40;78.60
68922;DHT22;55959;51.244;5.724;2022-11-30T08:31:09;10.40;78.60
68922;DHT22;55959;51.244;5.724;2022-11-30T08:33:43;10.40;78.70
68922;DHT22;55959;51.244;5.724;2022-11-30T08:36:17;10.40;78.70
68922;DHT22;55959;51.244;5.724;2022-11-30T08:38:45;10.40;78.70
68922;DHT22;55959;51.244;5.724;2022-11-30T08:41:13;10.40;78.70
68922;DHT22;55959;51.244;5.724;2022-11-30T08:43:40;10.40;78.70
68922;DHT22;55959;51.244;5.724;2022-11-30T08:46:08;10.40;78.70
68922;DHT22;55959;51.244;5.724;2022-11-30T08:48:36;10.40;78.70
68922;DHT22;55959;51.244;5.724;2022-11-30T08:51:03;10.40;78.70
68922;DHT22;55959;51.244;5.724;2022-11-30T08:53:35;10.40;79.50
68922;DHT22;55959;51.244;5.724;2022-11-30T08:56:03;10.40;78.70
68922;DHT22;55959;51.244;5.724;2022-11-30T08:58:32;10.40;78.70
68922;DHT22;55959;51.244;5.724;2022-11-30T09:01:07;10.40;78.70
68922;DHT22;55959;51.244;5.724;2022-11-30T09:03:43;10.40;78.70
68922;DHT22;55959;51.244;5.724;2022-11-30T09:06:14;10.40;78.80
68922;DHT22;55959;51.244;5.724;2022-11-30T09:08:46;10.40;78.90
68922;DHT22;55959;51.244;5.724;2022-11-30T09:13:52;10.50;79.10
68922;DHT22;55959;51.244;5.724;2022-11-30T09:16:19;10.50;79.30
68922;DHT22;55959;51.244;5.724;2022-11-30T09:18:47;10.50;79.40
68922;DHT22;55959;51.244;5.724;2022-11-30T09:21:16;10.50;79.50
68922;DHT22;55959;51.244;5.724;2022-11-30T09:23:43;10.60;79.90
68922;DHT22;55959;51.244;5.724;2022-11-30T09:26:12;10.60;80.10
68922;DHT22;55959;51.244;5.724;2022-11-30T09:28:39;10.60;80.20
68922;DHT22;55959;51.244;5.724;2022-11-30T09:31:22;10.70;80.30
68922;DHT22;55959;51.244;5.724;2022-11-30T09:33:49;10.70;80.50
68922;DHT22;55959;51.244;5.724;2022-11-30T09:36:18;10.80;80.50
68922;DHT22;55959;51.244;5.724;2022-11-30T09:38:45;10.80;80.50
68922;DHT22;55959;51.244;5.724;2022-11-30T09:44:20;10.90;80.40
68922;DHT22;55959;51.244;5.724;2022-11-30T09:50:02;10.90;80.40
68922;DHT22;55959;51.244;5.724;2022-11-30T09:52:41;11.00;80.50
68922;DHT22;55959;51.244;5.724;2022-11-30T09:55:11;11.00;80.50
68922;DHT22;55959;51.244;5.724;2022-11-30T09:57:45;11.00;80.30
68922;DHT22;55959;51.244;5.724;2022-11-30T10:00:18;11.10;80.30
68922;DHT22;55959;51.244;5.724;2022-11-30T10:02:47;11.10;80.30
68922;DHT22;55959;51.244;5.724;2022-11-30T10:05:46;11.10;80.40
68922;DHT22;55959;51.244;5.724;2022-11-30T10:17:24;11.20;80.20
68922;DHT22;55959;51.244;5.724;2022-11-30T10:20:16;11.20;80.20
68922;DHT22;55959;51.244;5.724;2022-11-30T10:26:03;11.30;80.40
68922;DHT22;55959;51.244;5.724;2022-11-30T10:28:35;11.30;80.50
68922;DHT22;55959;51.244;5.724;2022-11-30T10:31:13;11.40;80.50
68922;DHT22;55959;51.244;5.724;2022-11-30T10:33:49;11.50;80.40
68922;DHT22;55959;51.244;5.724;2022-11-30T10:36:32;11.50;80.30
68922;DHT22;55959;51.244;5.724;2022-11-30T10:39:05;11.50;80.20
68922;DHT22;55959;51.244;5.724;2022-11-30T10:41:54;11.60;80.20
68922;DHT22;55959;51.244;5.724;2022-11-30T10:44:44;11.70;80.10
68922;DHT22;55959;51.244;5.724;2022-11-30T10:47:25;11.70;79.80
68922;DHT22;55959;51.244;5.724;2022-11-30T10:49:55;11.70;79.50
68922;DHT22;55959;51.244;5.724;2022-11-30T10:55:30;11.80;79.10
68922;DHT22;55959;51.244;5.724;2022-11-30T10:59:06;11.80;78.50
68922;DHT22;55959;51.244;5.724;2022-11-30T11:01:35;11.90;79.10
68922;DHT22;55959;51.244;5.724;2022-11-30T11:04:12;11.90;79.10
68922;DHT22;55959;51.244;5.724;2022-11-30T11:07:08;11.90;78.80
68922;DHT22;55959;51.244;5.724;2022-11-30T11:09:44;12.00;78.80
68922;DHT22;55959;51.244;5.724;2022-11-30T11:12:16;12.00;78.70
68922;DHT22;55959;51.244;5.724;2022-11-30T11:14:44;12.00;78.60
68922;DHT22;55959;51.244;5.724;2022-11-30T11:19:47;12.10;78.40
68922;DHT22;55959;51.244;5.724;2022-11-30T11:22:23;12.10;78.30
68922;DHT22;55959;51.244;5.724;2022-11-30T11:24:52;12.10;78.10
68922;DHT22;55959;51.244;5.724;2022-11-30T11:27:30;12.20;78.00
68922;DHT22;55959;51.244;5.724;2022-11-30T11:30:11;12.20;77.80
68922;DHT22;55959;51.244;5.724;2022-11-30T11:33:00;12.20;77.70
68922;DHT22;55959;51.244;5.724;2022-11-30T11:41:09;12.20;77.60
68922;DHT22;55959;51.244;5.724;2022-11-30T11:44:17;12.20;77.60
68922;DHT22;55959;51.244;5.724;2022-11-30T11:46:57;12.20;77.50
68922;DHT22;55959;51.244;5.724;2022-11-30T11:49:31;12.20;77.50
68922;DHT22;55959;51.244;5.724;2022-11-30T11:52:14;12.30;77.40
68922;DHT22;55959;51.244;5.724;2022-11-30T11:57:40;12.30;77.40
68922;DHT22;55959;51.244;5.724;2022-11-30T12:00:25;12.30;77.40
68922;DHT22;55959;51.244;5.724;2022-11-30T12:05:39;12.30;77.10
68922;DHT22;55959;51.244;5.724;2022-11-30T12:11:10;12.40;76.90
68922;DHT22;55959;51.244;5.724;2022-11-30T12:13:46;12.40;76.80
68922;DHT22;55959;51.244;5.724;2022-11-30T12:45:42;12.30;76.00
68922;DHT22;55959;51.244;5.724;2022-11-30T12:48:31;12.30;75.90
68922;DHT22;55959;51.244;5.724;2022-11-30T12:56:35;12.20;75.70
68922;DHT22;55959;51.244;5.724;2022-11-30T12:59:35;12.20;75.50
68922;DHT22;55959;51.244;5.724;2022-11-30T13:05:20;12.20;75.50
68922;DHT22;55959;51.244;5.724;2022-11-30T13:08:00;12.20;75.70
68922;DHT22;55959;51.244;5.724;2022-11-30T13:10:40;12.30;75.80
68922;DHT22;55959;51.244;5.724;2022-11-30T13:13:24;12.30;75.80
68922;DHT22;55959;51.244;5.724;2022-11-30T13:15:51;12.30;75.50
68922;DHT22;55959;51.244;5.724;2022-11-30T13:18:19;12.30;75.00
68922;DHT22;55959;51.244;5.724;2022-11-30T13:21:18;12.30;74.70
68922;DHT22;55959;51.244;5.724;2022-11-30T13:26:41;12.30;73.70
68922;DHT22;55959;51.244;5.724;2022-11-30T13:32:30;12.20;71.90
68922;DHT22;55959;51.244;5.724;2022-11-30T13:38:22;12.10;72.50
68922;DHT22;55959;51.244;5.724;2022-11-30T13:40:59;12.00;72.70
68922;DHT22;55959;51.244;5.724;2022-11-30T13:43:28;12.00;72.90
68922;DHT22;55959;51.244;5.724;2022-11-30T13:46:04;12.00;72.90
68922;DHT22;55959;51.244;5.724;2022-11-30T13:48:37;12.00;73.10
68922;DHT22;55959;51.244;5.724;2022-11-30T13:51:04;12.00;73.00
68922;DHT22;55959;51.244;5.724;2022-11-30T13:53:33;12.00;72.90
68922;DHT22;55959;51.244;5.724;2022-11-30T13:56:30;11.90;72.90
68922;DHT22;55959;51.244;5.724;2022-11-30T14:01:49;11.90;73.10
68922;DHT22;55959;51.244;5.724;2022-11-30T14:04:30;12.00;73.30
68922;DHT22;55959;51.244;5.724;2022-11-30T14:06:57;12.00;73.30
68922;DHT22;55959;51.244;5.724;2022-11-30T14:14:59;12.00;72.90
68922;DHT22;55959;51.244;5.724;2022-11-30T14:17:33;12.00;73.00
68922;DHT22;55959;51.244;5.724;2022-11-30T14:20:31;12.00;72.90
68922;DHT22;55959;51.244;5.724;2022-11-30T14:23:05;12.00;72.70
68922;DHT22;55959;51.244;5.724;2022-11-30T14:25:33;12.00;72.70
68922;DHT22;55959;51.244;5.724;2022-11-30T14:28:01;11.90;72.70
68922;DHT22;55959;51.244;5.724;2022-11-30T14:30:31;11.90;72.70
68922;DHT22;55959;51.244;5.724;2022-11-30T14:33:05;12.00;72.70
68922;DHT22;55959;51.244;5.724;2022-11-30T14:35:38;12.00;72.60
68922;DHT22;55959;51.244;5.724;2022-11-30T14:38:15;11.90;72.70
68922;DHT22;55959;51.244;5.724;2022-11-30T14:40:49;11.90;72.80
68922;DHT22;55959;51.244;5.724;2022-11-30T14:43:16;11.90;72.90
68922;DHT22;55959;51.244;5.724;2022-11-30T14:45:58;11.90;72.90
68922;DHT22;55959;51.244;5.724;2022-11-30T14:48:25;11.90;72.90
68922;DHT22;55959;51.244;5.724;2022-11-30T14:50:56;11.90;72.70
68922;DHT22;55959;51.244;5.724;2022-11-30T14:56:47;12.00;72.70
68922;DHT22;55959;51.244;5.724;2022-11-30T15:02:19;11.90;72.50
68922;DHT22;55959;51.244;5.724;2022-11-30T15:04:50;11.90;72.50
68922;DHT22;55959;51.244;5.724;2022-11-30T15:07:17;11.90;72.50
68922;DHT22;55959;51.244;5.724;2022-11-30T15:09:45;11.90;72.40
68922;DHT22;55959;51.244;5.724;2022-11-30T15:12:20;11.90;72.40
68922;DHT22;55959;51.244;5.724;2022-11-30T15:17:54;11.90;72.70
68922;DHT22;55959;51.244;5.724;2022-11-30T15:20:41;11.90;72.60
68922;DHT22;55959;51.244;5.724;2022-11-30T15:23:12;11.90;72.70
68922;DHT22;55959;51.244;5.724;2022-11-30T15:25:42;11.90;72.70
68922;DHT22;55959;51.244;5.724;2022-11-30T15:28:17;11.90;72.70
68922;DHT22;55959;51.244;5.724;2022-11-30T15:30:52;11.90;72.80
68922;DHT22;55959;51.244;5.724;2022-11-30T15:33:21;11.90;72.80
68922;DHT22;55959;51.244;5.724;2022-11-30T15:35:50;11.90;72.80
68922;DHT22;55959;51.244;5.724;2022-11-30T15:38:27;11.90;72.80
68922;DHT22;55959;51.244;5.724;2022-11-30T15:41:02;11.90;72.90
68922;DHT22;55959;51.244;5.724;2022-11-30T15:43:36;11.90;72.80
68922;DHT22;55959;51.244;5.724;2022-11-30T15:46:05;11.90;72.90
68922;DHT22;55959;51.244;5.724;2022-11-30T15:48:38;11.80;72.70
68922;DHT22;55959;51.244;5.724;2022-11-30T15:51:05;11.80;72.80
68922;DHT22;55959;51.244;5.724;2022-11-30T15:53:48;11.90;72.90
68922;DHT22;55959;51.244;5.724;2022-11-30T15:56:24;11.80;72.90
68922;DHT22;55959;51.244;5.724;2022-11-30T15:59:20;11.80;72.90
68922;DHT22;55959;51.244;5.724;2022-11-30T16:01:55;11.80;73.00
68922;DHT22;55959;51.244;5.724;2022-11-30T16:07:24;11.80;73.10
68922;DHT22;55959;51.244;5.724;2022-11-30T16:10:20;11.80;73.00
68922;DHT22;55959;51.244;5.724;2022-11-30T16:12:50;11.80;72.90
68922;DHT22;55959;51.244;5.724;2022-11-30T16:17:45;11.80;73.80
68922;DHT22;55959;51.244;5.724;2022-11-30T16:20:12;11.70;72.80
68922;DHT22;55959;51.244;5.724;2022-11-30T16:22:44;11.70;72.60
68922;DHT22;55959;51.244;5.724;2022-11-30T16:25:16;11.70;72.40
68922;DHT22;55959;51.244;5.724;2022-11-30T16:27:43;11.70;72.20
68922;DHT22;55959;51.244;5.724;2022-11-30T16:30:14;11.70;72.10
68922;DHT22;55959;51.244;5.724;2022-11-30T16:32:41;11.70;72.20
68922;DHT22;55959;51.244;5.724;2022-11-30T16:38:17;11.70;72.00
68922;DHT22;55959;51.244;5.724;2022-11-30T16:40:43;11.60;71.70
68922;DHT22;55959;51.244;5.724;2022-11-30T16:43:10;11.60;71.70
68922;DHT22;55959;51.244;5.724;2022-11-30T16:45:37;11.60;71.30
68922;DHT22;55959;51.244;5.724;2022-11-30T16:48:04;11.60;71.50
68922;DHT22;55959;51.244;5.724;2022-11-30T16:50:31;11.50;71.30
68922;DHT22;55959;51.244;5.724;2022-11-30T16:53:00;11.50;71.40
68922;DHT22;55959;51.244;5.724;2022-11-30T16:55:32;11.50;71.50
68922;DHT22;55959;51.244;5.724;2022-11-30T16:58:02;11.50;71.50
68922;DHT22;55959;51.244;5.724;2022-11-30T17:00:28;11.40;71.30
68922;DHT22;55959;51.244;5.724;2022-11-30T17:03:00;11.40;71.30
68922;DHT22;55959;51.244;5.724;2022-11-30T17:05:30;11.40;71.30
68922;DHT22;55959;51.244;5.724;2022-11-30T17:07:56;11.40;71.40
68922;DHT22;55959;51.244;5.724;2022-11-30T17:10:22;11.30;71.30
68922;DHT22;55959;51.244;5.724;2022-11-30T17:12:47;11.30;71.30
68922;DHT22;55959;51.244;5.724;2022-11-30T17:15:19;11.30;71.50
68922;DHT22;55959;51.244;5.724;2022-11-30T17:17:46;11.30;71.50
68922;DHT22;55959;51.244;5.724;2022-11-30T17:20:13;11.30;71.60
68922;DHT22;55959;51.244;5.724;2022-11-30T17:22:40;11.30;71.70
68922;DHT22;55959;51.244;5.724;2022-11-30T17:25:13;11.20;71.70
68922;DHT22;55959;51.244;5.724;2022-11-30T17:27:40;11.20;71.80
68922;DHT22;55959;51.244;5.724;2022-11-30T17:30:09;11.20;71.70
68922;DHT22;55959;51.244;5.724;2022-11-30T17:32:36;11.20;71.50
68922;DHT22;55959;51.244;5.724;2022-11-30T17:35:02;11.20;71.40
68922;DHT22;55959;51.244;5.724;2022-11-30T17:37:27;11.10;71.50
68922;DHT22;55959;51.244;5.724;2022-11-30T17:39:53;11.20;71.70
68922;DHT22;55959;51.244;5.724;2022-11-30T17:42:19;11.20;71.80
68922;DHT22;55959;51.244;5.724;2022-11-30T17:44:46;11.10;71.70
68922;DHT22;55959;51.244;5.724;2022-11-30T17:47:13;11.10;71.80
68922;DHT22;55959;51.244;5.724;2022-11-30T17:49:39;11.10;72.70
68922;DHT22;55959;51.244;5.724;2022-11-30T17:52:04;11.10;71.90
68922;DHT22;55959;51.244;5.724;2022-11-30T17:54:30;11.10;72.10
68922;DHT22;55959;51.244;5.724;2022-11-30T17:56:56;11.10;72.00
68922;DHT22;55959;51.244;5.724;2022-11-30T17:59:22;11.10;72.20
68922;DHT22;55959;51.244;5.724;2022-11-30T18:01:47;11.10;72.20
68922;DHT22;55959;51.244;5.724;2022-11-30T18:04:13;11.10;72.20
68922;DHT22;55959;51.244;5.724;2022-11-30T18:06:39;11.10;72.10
68922;DHT22;55959;51.244;5.724;2022-11-30T18:09:04;11.10;72.10